createdAt,value
2018-07-04T00:08:06.848Z,54.90
2018-07-04T00:10:52.436Z,55.10
2018-07-04T03:16:36.964Z,61.80
2018-07-04T04:14:48.682Z,67.20
2018-07-04T06:36:25.581Z,74.70
2018-07-04T08:17:02.347Z,82.10
2018-07-04T08:55:06.735Z,83.50
2018-07-04T09:30:33.095Z,83.40
2018-07-04T09:49:17.464Z,83.10
2018-07-04T09:52:12.040Z,83.60
2018-07-04T10:08:03.807Z,84.00
2018-07-04T10:11:00.508Z,84.70
2018-07-04T10:19:39.156Z,87.40
2018-07-04T10:22:42.808Z,87.80
2018-07-04T10:52:14.334Z,89.70
2018-07-04T11:07:37.895Z,89.50
2018-07-04T11:10:27.755Z,89.30
2018-07-04T11:20:22.530Z,88.80
2018-07-04T11:46:12.784Z,88.00
2018-07-04T11:48:45.748Z,86.80
2018-07-04T11:51:17.231Z,87.00
2018-07-04T11:53:50.802Z,87.00
2018-07-04T11:59:18.055Z,86.70
2018-07-04T12:07:31.611Z,86.40
2018-07-04T12:10:01.764Z,86.20
2018-07-04T12:12:32.283Z,86.00
2018-07-04T12:15:05.384Z,85.90
2018-07-04T12:17:37.689Z,85.50
2018-07-04T12:20:10.269Z,85.50
2018-07-04T14:10:08.979Z,66.20
2018-07-04T14:13:09.035Z,60.20
2018-07-04T14:16:00.380Z,59.90
2018-07-04T14:18:50.257Z,59.20
2018-07-04T14:21:36.962Z,58.90
2018-07-04T16:10:35.423Z,51.10
2018-07-04T16:13:35.063Z,51.60
2018-07-04T16:16:22.063Z,51.70
2018-07-04T16:30:19.130Z,51.30
2018-07-04T16:33:08.799Z,50.60
2018-07-04T16:38:45.195Z,51.10
2018-07-04T17:01:19.946Z,50.10
2018-07-04T18:07:55.307Z,39.20
2018-07-04T18:11:05.239Z,38.20
2018-07-04T18:16:57.112Z,39.40
2018-07-04T19:01:22.840Z,39.00
2018-07-04T19:13:15.606Z,38.80
2018-07-04T20:17:07.162Z,43.40
2018-07-04T20:19:50.366Z,42.50
2018-07-04T20:22:32.680Z,41.00
2018-07-04T20:25:15.582Z,40.90
2018-07-04T20:27:58.230Z,42.80
2018-07-04T20:30:41.312Z,42.70
2018-07-04T20:33:23.822Z,43.20
2018-07-04T20:36:08.261Z,41.80
2018-07-04T20:39:01.930Z,41.80
2018-07-04T20:41:44.959Z,41.10
2018-07-04T20:44:29.046Z,42.90
2018-07-04T20:53:23.503Z,42.50
2018-07-04T20:56:07.962Z,42.30
2018-07-04T20:58:51.624Z,42.90
2018-07-04T21:01:35.760Z,43.10
2018-07-04T21:04:19.533Z,42.10
2018-07-04T21:07:04.318Z,41.80
2018-07-04T21:09:48.214Z,42.10
2018-07-04T21:12:31.461Z,43.00
2018-07-04T21:15:15.154Z,43.40
2018-07-04T21:17:58.308Z,44.20
2018-07-04T21:20:41.187Z,44.30
2018-07-04T21:23:24.340Z,44.80
2018-07-04T21:26:07.051Z,44.00
2018-07-04T21:28:49.342Z,45.00
2018-07-04T21:31:31.669Z,45.30
2018-07-04T21:34:14.046Z,46.30
2018-07-04T21:36:57.574Z,47.40
2018-07-04T21:39:41.230Z,47.00
2018-07-04T21:42:23.870Z,46.80
2018-07-04T21:45:06.295Z,47.20
2018-07-04T21:47:49.567Z,48.20
2018-07-04T21:50:38.648Z,48.80
2018-07-04T21:53:25.040Z,48.80
2018-07-04T21:56:09.871Z,49.10
2018-07-04T21:58:52.697Z,48.90
2018-07-04T22:01:50.249Z,49.00
2018-07-04T22:04:32.816Z,50.20
2018-07-04T22:07:20.695Z,50.70
2018-07-04T22:10:11.612Z,50.70
2018-07-04T22:34:42.648Z,59.30
2018-07-04T22:43:24.023Z,58.40
2018-07-04T22:46:07.760Z,58.00
2018-07-04T22:48:50.462Z,57.70
2018-07-04T22:51:37.087Z,57.10
2018-07-04T22:54:20.612Z,56.90
2018-07-04T22:57:03.555Z,57.30
2018-07-04T23:02:36.111Z,58.50
2018-07-04T23:05:19.130Z,58.50
2018-07-04T23:08:02.127Z,59.10
2018-07-04T23:10:44.845Z,58.80
2018-07-04T23:16:05.351Z,59.60
2018-07-04T23:18:53.489Z,60.00
2018-07-04T23:21:41.443Z,61.10
2018-07-04T23:24:23.900Z,62.50
2018-07-04T23:27:10.638Z,62.10
2018-07-04T23:29:54.334Z,61.90
2018-07-04T23:32:44.044Z,62.30
2018-07-04T23:35:31.883Z,61.80
